Time;durP1;ratioP1;P1;durP2;ratioP2;P2;SDS_P1;SDS_P2;PMS_P1;PMS_P2;Temp;Humidity;BMP_temperature;BMP_pressure;BME280_temperature;BME280_humidity;BME280_pressure;Samples;Min_cycle;Max_cycle;Signal;HPM_P1;HPM_P2
2022/06/12 00:01:57;;;;;;;;;1.33;1.33;;;;;21.96;42.17;102086.75;5095995;27;45414;-91
2022/06/12 00:04:23;;;;;;;;;2.00;1.00;;;;;21.97;42.04;102102.06;5097786;27;45412;-92
2022/06/12 00:06:48;;;;;;;;;3.00;1.00;;;;;21.96;42.59;102094.88;5096511;27;45247;-93
2022/06/12 00:09:14;;;;;;;;;0.67;0.67;;;;;21.92;42.63;102100.53;5096773;27;45583;-94
2022/06/12 00:11:41;;;;;;;;;2.00;0.67;;;;;21.91;42.87;102096.09;5096412;27;46126;-94
2022/06/12 00:14:07;;;;;;;;;2.00;1.00;;;;;21.85;42.66;102093.81;5097604;27;45370;-93
2022/06/12 00:16:34;;;;;;;;;1.00;1.00;;;;;21.79;42.46;102079.78;5097871;27;45633;-94
2022/06/12 00:19:02;;;;;;;;;4.00;1.00;;;;;21.85;43.00;102101.09;5082770;27;45581;-93
2022/06/12 00:21:31;;;;;;;;;4.00;2.67;;;;;21.82;43.28;102098.56;5086508;27;47360;-93
2022/06/12 00:24:00;;;;;;;;;4.33;4.33;;;;;21.82;43.51;102095.84;5100173;27;45267;-93
2022/06/12 00:26:32;;;;;;;;;4.00;4.00;;;;;21.77;43.58;102106.16;5100849;27;45566;-93
2022/06/12 00:29:00;;;;;;;;;6.33;6.00;;;;;21.68;43.30;102091.38;5101636;27;45398;-93
2022/06/12 00:31:28;;;;;;;;;8.33;8.33;;;;;21.71;43.67;102100.19;5106897;27;46538;-93
2022/06/12 00:33:54;;;;;;;;;13.67;12.67;;;;;21.56;44.24;102087.66;5108306;27;45334;-94
2022/06/12 00:36:19;;;;;;;;;16.33;11.00;;;;;21.64;44.33;102100.72;5107071;27;45307;-94
2022/06/12 00:38:45;;;;;;;;;12.67;12.67;;;;;21.53;44.47;102090.59;5107320;27;45501;-93
2022/06/12 00:41:10;;;;;;;;;16.00;13.33;;;;;21.59;44.38;102106.47;5107628;27;45367;-93
2022/06/12 00:43:37;;;;;;;;;9.00;9.00;;;;;21.58;44.87;102109.28;5108018;27;45287;-93
2022/06/12 00:46:03;;;;;;;;;9.67;8.33;;;;;21.38;44.42;102075.38;5104457;27;45291;-94
2022/06/12 00:48:33;;;;;;;;;4.67;4.67;;;;;21.20;44.58;102053.06;5103383;27;45571;-95
2022/06/12 00:51:11;;;;;;;;;7.67;4.00;;;;;21.53;45.35;102114.16;5085126;27;47651;-95
2022/06/12 00:53:47;;;;;;;;;5.33;3.33;;;;;21.46;45.10;102095.56;5103562;27;45449;-93
2022/06/12 00:56:22;;;;;;;;;3.00;3.00;;;;;21.49;45.07;102108.97;5103442;27;45410;-96
2022/06/12 00:58:57;;;;;;;;;3.67;3.67;;;;;21.32;44.88;102078.47;5103542;27;45572;-93
2022/06/12 01:01:33;;;;;;;;;4.33;2.00;;;;;21.44;45.55;102107.50;5102942;27;45790;-94
2022/06/12 01:06:45;;;;;;;;;2.33;1.67;;;;;21.35;44.96;102092.69;5099014;27;45351;-93
2022/06/12 01:09:19;;;;;;;;;2.33;2.33;;;;;21.32;45.61;102106.47;5100628;27;47854;-94
2022/06/12 01:11:47;;;;;;;;;0.33;0.00;;;;;21.29;45.84;102110.25;5098991;27;47235;-94
2022/06/12 01:14:17;;;;;;;;;1.67;1.67;;;;;21.27;45.28;102114.03;5099486;27;45522;-94
2022/06/12 01:16:48;;;;;;;;;2.00;2.00;;;;;21.12;45.66;102099.69;5098768;27;46017;-94
2022/06/12 01:19:42;;;;;;;;;1.50;1.50;;;;;21.20;45.89;102116.28;5099582;27;45535;-95
2022/06/12 01:22:11;;;;;;;;;3.00;2.00;;;;;21.17;45.82;102119.22;5094293;27;45694;-96
2022/06/12 01:24:39;;;;;;;;;2.00;2.00;;;;;21.16;45.79;102113.88;5098577;27;45441;-93
2022/06/12 01:27:07;;;;;;;;;2.00;2.00;;;;;21.15;45.44;102112.16;5098793;27;45568;-93
2022/06/12 01:29:41;;;;;;;;;3.33;2.00;;;;;21.11;45.33;102113.34;5099246;27;45277;-94
2022/06/12 01:32:21;;;;;;;;;1.00;1.00;;;;;21.08;45.84;102117.97;5098998;27;45488;-94
2022/06/12 01:34:59;;;;;;;;;1.00;1.00;;;;;21.06;45.67;102110.94;5099588;27;45490;-96
2022/06/12 01:37:49;;;;;;;;;1.00;1.00;;;;;20.96;45.40;102098.97;5095401;27;45391;-95
2022/06/12 01:40:35;;;;;;;;;1.67;1.00;;;;;20.99;45.72;102109.59;5099030;27;45330;-93
2022/06/12 01:44:03;;;;;;;;;1.00;1.00;;;;;20.76;45.72;102084.00;5098883;27;47573;-95
2022/06/12 01:46:42;;;;;;;;;1.33;1.33;;;;;20.54;45.74;102050.16;5005867;28;45499;-95
2022/06/12 01:49:36;;;;;;;;;2.00;1.00;;;;;20.90;46.05;102118.31;5004192;28;45497;-94
2022/06/12 01:52:28;;;;;;;;;1.00;1.00;;;;;20.86;45.85;102121.25;5014066;28;45771;-95
2022/06/12 01:55:07;;;;;;;;;2.67;0.33;;;;;20.83;45.65;102129.56;5001831;28;46234;-95
2022/06/12 01:57:48;;;;;;;;;1.00;1.00;;;;;20.80;45.93;102127.06;5001328;28;47665;-96
2022/06/12 02:00:18;;;;;;;;;2.00;1.00;;;;;20.72;46.07;102120.38;5011040;28;45907;-95
2022/06/12 02:02:48;;;;;;;;;1.00;1.00;;;;;20.74;46.03;102126.56;5008432;28;45533;-94
2022/06/12 02:05:37;;;;;;;;;3.00;2.00;;;;;20.70;46.03;102120.50;4999818;28;47362;-95
2022/06/12 02:08:03;;;;;;;;;1.67;1.00;;;;;20.69;45.82;102132.28;4999286;28;45582;-95
2022/06/12 02:10:42;;;;;;;;;3.00;2.00;;;;;20.52;46.48;102103.56;5012959;28;45551;-94
2022/06/12 02:13:23;;;;;;;;;4.00;2.33;;;;;20.54;46.09;102114.28;5012659;28;45515;-95
2022/06/12 02:16:10;;;;;;;;;0.00;0.00;;;;;20.60;46.05;102127.47;4999773;28;47290;-95
2022/06/12 02:18:44;;;;;;;;;1.67;1.67;;;;;20.41;46.32;102106.06;5096696;27;45453;-96
2022/06/12 02:21:28;;;;;;;;;3.33;1.67;;;;;20.53;46.90;102134.22;5099139;27;45310;-95
2022/06/12 02:24:25;;;;;;;;;1.33;1.33;;;;;20.48;46.53;102131.78;5098614;27;45452;-94
2022/06/12 02:27:05;;;;;;;;;2.00;0.67;;;;;20.47;46.72;102132.78;5098493;27;46311;-95
2022/06/12 02:29:39;;;;;;;;;1.00;1.00;;;;;20.29;46.87;102107.72;5098797;27;45332;-94
2022/06/12 02:32:13;;;;;;;;;2.33;1.00;;;;;20.41;46.57;102135.84;5083214;27;45628;-94
2022/06/12 02:34:44;;;;;;;;;5.33;2.33;;;;;20.39;46.76;102135.06;5098550;27;45449;-95
2022/06/12 02:37:23;;;;;;;;;4.00;1.67;;;;;20.02;46.75;102075.13;5098945;27;46655;-94
2022/06/12 02:39:55;;;;;;;;;1.33;1.33;;;;;20.33;47.49;102133.63;5097303;27;45398;-94
2022/06/12 02:42:27;;;;;;;;;1.00;1.00;;;;;20.10;47.43;102097.16;5097260;27;45481;-96
2022/06/12 02:45:04;;;;;;;;;2.00;2.00;;;;;20.15;47.01;102108.56;5098644;27;45496;-94
2022/06/12 02:47:33;;;;;;;;;2.00;0.00;;;;;19.98;47.31;102087.13;5097708;27;47393;-94
2022/06/12 02:49:59;;;;;;;;;2.00;1.00;;;;;20.19;47.51;102123.66;5096902;27;45440;-94
2022/06/12 02:52:43;;;;;;;;;1.67;1.33;;;;;20.20;47.71;102130.81;5094651;27;45505;-95
2022/06/12 02:55:23;;;;;;;;;1.67;1.67;;;;;20.16;47.69;102132.00;5098223;27;45412;-96
2022/06/12 02:58:16;;;;;;;;;2.00;2.00;;;;;20.14;48.05;102131.22;5103996;27;46488;-95
2022/06/12 03:01:00;;;;;;;;;2.67;2.33;;;;;20.08;47.97;102123.47;5089653;27;45402;-95
2022/06/12 03:04:01;;;;;;;;;1.67;1.67;;;;;20.12;47.93;102133.13;5085357;27;45341;-95
2022/06/12 03:06:29;;;;;;;;;2.00;2.00;;;;;20.11;48.16;102141.34;5105311;27;45416;-96
2022/06/12 03:08:58;;;;;;;;;1.00;1.00;;;;;20.08;47.81;102139.69;5104391;27;46696;-94
2022/06/12 03:11:37;;;;;;;;;2.00;2.00;;;;;20.05;48.23;102144.44;5101564;27;45441;-96
2022/06/12 03:14:10;;;;;;;;;3.00;1.00;;;;;20.01;48.26;102136.50;5086665;27;45379;-94
2022/06/12 03:16:39;;;;;;;;;1.67;1.00;;;;;19.94;48.43;102128.84;5101375;27;45362;-94
2022/06/12 03:19:09;;;;;;;;;2.00;2.00;;;;;19.96;48.59;102129.63;5101594;27;46281;-93
2022/06/12 03:21:41;;;;;;;;;3.00;3.00;;;;;19.96;48.32;102129.63;5100978;27;45547;-94
2022/06/12 03:24:27;;;;;;;;;1.67;1.00;;;;;19.93;47.86;102138.81;5101285;27;45312;-94
2022/06/12 03:27:13;;;;;;;;;2.00;2.00;;;;;19.89;47.94;102134.53;5100782;27;45426;-95
2022/06/12 03:30:03;;;;;;;;;4.00;1.00;;;;;19.86;48.59;102136.59;5100351;27;45526;-96
2022/06/12 03:32:51;;;;;;;;;3.00;1.00;;;;;19.84;48.73;102130.38;5098203;27;45540;-95
2022/06/12 03:35:30;;;;;;;;;1.00;1.00;;;;;19.84;48.79;102127.69;5085188;27;45377;-95
2022/06/12 03:38:31;;;;;;;;;3.33;1.00;;;;;19.79;48.78;102128.81;5082793;27;45493;-95
2022/06/12 03:41:02;;;;;;;;;1.00;1.00;;;;;19.77;48.68;102136.16;5079973;27;46267;-94
2022/06/12 03:43:56;;;;;;;;;2.00;2.00;;;;;19.77;48.74;102135.28;5098980;27;45355;-95
2022/06/12 03:46:32;;;;;;;;;4.00;1.00;;;;;19.73;48.65;102129.19;5081199;27;45373;-93
2022/06/12 03:49:10;;;;;;;;;1.00;1.00;;;;;19.66;49.28;102121.50;5097416;27;45406;-95
2022/06/12 03:51:46;;;;;;;;;3.00;2.00;;;;;19.73;49.02;102131.88;5081741;27;47988;-95
2022/06/12 03:54:20;;;;;;;;;2.67;2.00;;;;;19.72;48.78;102127.47;5102188;27;45452;-96
2022/06/12 04:00:17;;;;;;;;;1.00;1.00;;;;;19.67;49.30;102129.53;5101166;27;45462;-95
2022/06/12 04:02:46;;;;;;;;;3.33;2.00;;;;;19.54;49.19;102107.75;5100179;27;46378;-93
2022/06/12 04:05:21;;;;;;;;;3.00;2.33;;;;;19.55;48.83;102109.50;5100546;27;45624;-93
2022/06/12 04:07:50;;;;;;;;;1.67;1.67;;;;;19.64;49.06;102118.88;5100757;27;45575;-95
2022/06/12 04:10:24;;;;;;;;;2.00;0.67;;;;;19.50;49.04;102098.09;5101850;27;45636;-94
2022/06/12 04:12:51;;;;;;;;;2.00;2.00;;;;;19.57;49.00;102106.69;5098974;27;46483;-94
2022/06/12 04:15:22;;;;;;;;;3.33;1.00;;;;;19.53;49.22;102114.13;5099811;27;45381;-94
2022/06/12 04:17:47;;;;;;;;;2.67;1.33;;;;;19.55;49.46;102116.72;5100585;27;45378;-94
2022/06/12 04:20:26;;;;;;;;;1.00;1.00;;;;;19.52;48.88;102114.22;5100361;27;45547;-95
2022/06/12 04:23:00;;;;;;;;;1.00;1.00;;;;;19.59;49.60;102123.69;5100278;27;45568;-93
2022/06/12 04:26:20;;;;;;;;;2.33;2.00;;;;;19.56;49.52;102121.19;5096626;27;45460;-93
2022/06/12 04:28:58;;;;;;;;;1.67;1.67;;;;;19.57;49.20;102131.94;5006589;28;45434;-93
2022/06/12 04:31:24;;;;;;;;;1.00;1.00;;;;;19.26;49.55;102081.47;5014197;28;45644;-92
2022/06/12 04:33:55;;;;;;;;;1.67;0.67;;;;;19.52;49.34;102136.72;5010194;28;46516;-94
2022/06/12 04:36:21;;;;;;;;;0.33;0.33;;;;;19.49;49.55;102134.19;5014754;28;45460;-95
2022/06/12 04:38:47;;;;;;;;;4.33;1.33;;;;;19.52;49.54;102143.97;5009019;28;45681;-95
2022/06/12 04:41:22;;;;;;;;;1.00;1.00;;;;;19.40;49.42;102115.81;5007653;28;46079;-94
2022/06/12 04:43:47;;;;;;;;;3.00;2.00;;;;;19.52;50.12;102141.25;5035294;28;46054;-92
2022/06/12 04:46:13;;;;;;;;;1.00;1.00;;;;;19.27;49.95;102101.25;5037858;28;45369;-94
2022/06/12 04:48:42;;;;;;;;;1.00;1.00;;;;;19.49;50.26;102147.72;5019979;28;45424;-95
2022/06/12 04:51:09;;;;;;;;;3.67;2.00;;;;;19.49;49.79;102138.75;5028170;28;45806;-96
2022/06/12 04:53:35;;;;;;;;;2.00;2.00;;;;;19.48;50.25;102136.97;5015546;28;45547;-94
2022/06/12 04:56:01;;;;;;;;;1.00;1.00;;;;;19.31;50.22;102113.66;5023524;28;45543;-94
2022/06/12 04:58:28;;;;;;;;;2.00;2.00;;;;;19.43;50.57;102129.13;5032569;28;45444;-93
2022/06/12 05:00:53;;;;;;;;;1.00;1.00;;;;;19.29;50.57;102108.34;5012989;28;45647;-92
2022/06/12 05:03:18;;;;;;;;;3.00;2.00;;;;;19.40;50.75;102127.50;5038670;27;45402;-91
2022/06/12 05:05:44;;;;;;;;;3.00;2.00;;;;;19.36;50.37;102119.66;5108335;27;45405;-93
2022/06/12 05:08:10;;;;;;;;;1.00;1.00;;;;;19.49;50.22;102144.16;5088033;27;45495;-93
2022/06/12 05:10:36;;;;;;;;;3.67;2.67;;;;;19.44;50.66;102119.22;5119897;27;45362;-94
2022/06/12 05:13:02;;;;;;;;;4.00;1.00;;;;;19.44;50.88;102111.97;5100829;27;45407;-94
2022/06/12 05:15:28;;;;;;;;;2.00;2.00;;;;;19.51;50.69;102120.59;5073978;27;45380;-95
2022/06/12 05:17:53;;;;;;;;;2.67;1.00;;;;;19.40;50.48;102099.59;5100816;27;45393;-96
2022/06/12 05:20:24;;;;;;;;;0.67;0.67;;;;;19.45;50.72;102105.59;5101146;27;45441;-95
2022/06/12 05:22:50;;;;;;;;;1.33;1.33;;;;;19.55;50.88;102114.91;5106317;27;46251;-96
2022/06/12 05:25:17;;;;;;;;;2.00;2.00;;;;;19.47;50.89;102103.66;5112329;27;45491;-95
2022/06/12 05:27:45;;;;;;;;;2.67;2.67;;;;;19.61;50.82;102124.47;5110061;27;45557;-95
2022/06/12 05:30:14;;;;;;;;;1.33;1.33;;;;;19.57;50.56;102117.50;5109145;27;45459;-95
2022/06/12 05:32:40;;;;;;;;;2.33;2.00;;;;;19.60;50.76;102123.63;5112118;27;45500;-96
2022/06/12 05:35:07;;;;;;;;;1.00;1.00;;;;;19.58;50.98;102117.44;5093579;27;45452;-95
2022/06/12 05:37:33;;;;;;;;;4.00;3.00;;;;;19.66;50.45;102118.81;5104238;27;45333;-95
2022/06/12 05:39:59;;;;;;;;;2.00;2.00;;;;;19.55;50.58;102101.41;5102987;27;45325;-95
2022/06/12 05:42:24;;;;;;;;;5.00;3.00;;;;;19.57;50.77;102102.19;5101005;27;46303;-94
2022/06/12 05:44:49;;;;;;;;;1.00;1.00;;;;;19.73;50.17;102120.19;5100304;27;47411;-94
2022/06/12 05:47:15;;;;;;;;;2.00;2.00;;;;;19.75;50.22;102124.56;5100687;27;45492;-95
2022/06/12 05:49:40;;;;;;;;;2.00;1.00;;;;;19.75;50.67;102112.88;5103368;27;45510;-95
2022/06/12 05:52:06;;;;;;;;;3.00;1.33;;;;;19.76;50.57;102123.59;5100987;27;46148;-94
2022/06/12 05:54:33;;;;;;;;;2.00;1.00;;;;;19.78;50.09;102126.19;5096096;27;45436;-95
2022/06/12 05:56:59;;;;;;;;;2.33;1.33;;;;;19.81;49.72;102126.91;5101974;27;45559;-93
2022/06/12 05:59:24;;;;;;;;;0.67;0.67;;;;;19.90;49.86;102128.19;5102241;27;45413;-94
2022/06/12 06:01:50;;;;;;;;;3.33;1.67;;;;;19.79;49.79;102104.47;5101018;27;46042;-95
2022/06/12 06:04:16;;;;;;;;;1.00;1.00;;;;;19.99;49.74;102135.75;5101875;27;45227;-94
2022/06/12 06:06:46;;;;;;;;;0.00;0.00;;;;;19.93;49.53;102129.84;5102631;27;45371;-94
2022/06/12 06:09:13;;;;;;;;;2.33;2.33;;;;;19.89;49.13;102107.47;5100861;27;45528;-93
2022/06/12 06:11:39;;;;;;;;;2.00;1.00;;;;;20.12;49.15;102152.09;5101020;27;46070;-96
2022/06/12 06:14:06;;;;;;;;;0.00;0.00;;;;;20.13;49.57;102132.16;5099453;27;45358;-95
2022/06/12 06:16:33;;;;;;;;;2.00;1.00;;;;;20.11;48.83;102122.41;5099588;27;45476;-95
2022/06/12 06:18:59;;;;;;;;;1.00;1.00;;;;;20.08;48.96;102099.09;5100238;27;45374;-95
2022/06/12 06:21:24;;;;;;;;;2.33;1.00;;;;;20.32;48.66;102139.13;5099643;27;45543;-94
2022/06/12 06:23:49;;;;;;;;;4.00;1.00;;;;;20.34;48.80;102143.50;5099455;27;45362;-95
2022/06/12 06:26:16;;;;;;;;;0.33;0.33;;;;;20.38;48.16;102142.34;5099273;27;45432;-94
2022/06/12 06:28:42;;;;;;;;;3.00;1.00;;;;;20.32;48.37;102125.59;5099701;27;45400;-94
2022/06/12 06:31:09;;;;;;;;;3.33;1.00;;;;;20.37;48.14;102129.78;5099838;27;46023;-95
2022/06/12 06:33:35;;;;;;;;;4.33;1.00;;;;;20.33;48.19;102113.81;5099057;27;45496;-94
2022/06/12 06:36:00;;;;;;;;;2.00;2.00;;;;;20.53;48.22;102143.19;5100233;27;45404;-95
2022/06/12 06:38:26;;;;;;;;;4.00;2.00;;;;;20.60;47.96;102149.13;5099979;27;45622;-94
2022/06/12 06:40:51;;;;;;;;;2.33;1.00;;;;;20.65;47.65;102152.44;5099679;27;46138;-94
2022/06/12 06:43:16;;;;;;;;;2.00;2.00;;;;;20.68;47.65;102145.97;5101400;27;45424;-94
2022/06/12 06:48:28;;;;;;;;;1.67;1.00;;;;;20.63;47.21;102119.16;5101103;27;45633;-95
2022/06/12 06:50:54;;;;;;;;;2.33;1.00;;;;;20.86;47.80;102144.75;5100212;27;45410;-96
2022/06/12 06:53:20;;;;;;;;;1.00;1.00;;;;;20.92;47.46;102140.78;5100915;27;45414;-94
2022/06/12 06:55:47;;;;;;;;;2.00;1.33;;;;;20.98;46.87;102152.09;5100461;27;45556;-93
2022/06/12 06:58:17;;;;;;;;;2.00;2.00;;;;;20.91;46.32;102142.63;5100216;27;45240;-95
2022/06/12 07:00:45;;;;;;;;;0.67;0.67;;;;;21.05;46.84;102158.88;5098917;27;46464;-93
2022/06/12 07:03:11;;;;;;;;;0.67;0.33;;;;;21.11;46.34;102157.56;5100730;27;45377;-95
2022/06/12 07:05:38;;;;;;;;;4.00;3.00;;;;;21.16;46.48;102158.13;5097967;27;45335;-94
2022/06/12 07:08:04;;;;;;;;;2.00;1.33;;;;;21.17;45.93;102150.91;5100146;27;45828;-95
2022/06/12 07:10:32;;;;;;;;;2.00;2.00;;;;;20.99;46.15;102104.16;5103039;27;46333;-95
2022/06/12 07:12:59;;;;;;;;;4.00;2.00;;;;;21.28;46.69;102146.50;5105865;27;45699;-95
2022/06/12 07:15:27;;;;;;;;;2.00;2.00;;;;;21.33;46.84;102157.03;5114596;27;45361;-96
2022/06/12 07:17:54;;;;;;;;;1.67;1.67;;;;;21.33;46.20;102150.72;5096247;27;45248;-94
2022/06/12 07:20:21;;;;;;;;;1.00;1.00;;;;;21.33;46.26;102148.91;5092158;27;45234;-96
2022/06/12 07:22:47;;;;;;;;;2.00;2.00;;;;;21.45;46.42;102152.66;5107510;27;46359;-96
2022/06/12 07:25:13;;;;;;;;;2.67;2.33;;;;;21.49;46.50;102157.78;5105789;27;45312;-95
2022/06/12 07:27:39;;;;;;;;;2.33;1.33;;;;;21.55;46.64;102159.19;5109019;27;45437;-96
2022/06/12 07:30:07;;;;;;;;;3.00;1.67;;;;;21.58;46.02;102159.00;5111664;27;46188;-95
2022/06/12 07:32:33;;;;;;;;;2.00;2.00;;;;;21.65;46.18;102154.88;5110850;27;45248;-96
2022/06/12 07:34:59;;;;;;;;;1.00;1.00;;;;;21.45;46.24;102120.97;5112967;27;45345;-95
2022/06/12 07:37:24;;;;;;;;;2.00;2.00;;;;;21.71;45.95;102159.03;5110072;27;45208;-95
2022/06/12 07:39:49;;;;;;;;;2.67;1.67;;;;;21.76;45.80;102153.28;5091944;27;47013;-96
2022/06/12 07:42:16;;;;;;;;;1.00;1.00;;;;;21.66;45.83;102131.34;5107170;27;45241;-95
2022/06/12 07:44:41;;;;;;;;;1.67;1.00;;;;;21.88;46.29;102160.59;5110673;27;45381;-95
2022/06/12 07:47:07;;;;;;;;;2.67;2.67;;;;;21.94;46.39;102157.47;5113156;27;45369;-96
2022/06/12 07:49:33;;;;;;;;;2.00;2.00;;;;;21.86;46.17;102127.25;5117965;27;46285;-96
2022/06/12 07:52:01;;;;;;;;;1.67;1.67;;;;;22.08;45.34;102159.22;5115000;27;45345;-96
2022/06/12 07:54:28;;;;;;;;;3.00;1.00;;;;;22.05;45.10;102149.41;5124381;27;44890;-96
2022/06/12 07:56:55;;;;;;;;;3.00;3.00;;;;;22.13;44.63;102148.91;5124208;27;45157;-96
2022/06/12 07:59:21;;;;;;;;;1.33;1.00;;;;;22.19;44.87;102144.88;5100222;27;46307;-94
2022/06/12 08:01:47;;;;;;;;;2.33;1.00;;;;;22.21;44.46;102149.25;5115724;27;45286;-96
2022/06/12 08:04:13;;;;;;;;;3.00;1.00;;;;;22.26;44.13;102133.47;5117635;27;45269;-96
2022/06/12 08:06:39;;;;;;;;;2.67;2.00;;;;;22.31;43.63;102130.44;5118596;27;45299;-93
2022/06/12 08:09:07;;;;;;;;;3.33;1.00;;;;;22.38;43.94;102120.00;5092287;27;48864;-93
2022/06/12 08:11:34;;;;;;;;;2.67;1.00;;;;;22.75;43.31;102146.25;5105618;27;45420;-96
2022/06/12 08:13:59;;;;;;;;;2.00;0.33;;;;;22.92;41.57;102153.19;5103128;27;44781;-94
2022/06/12 08:16:25;;;;;;;;;1.33;0.00;;;;;22.90;42.54;102130.69;5115402;27;44748;-96
2022/06/12 08:18:51;;;;;;;;;1.00;1.00;;;;;23.06;42.13;102141.34;5111052;27;45545;-94
2022/06/12 08:21:17;;;;;;;;;2.00;2.00;;;;;23.26;41.98;102141.69;5098240;27;45359;-94
2022/06/12 08:23:52;;;;;;;;;1.33;1.33;;;;;23.34;40.75;102125.63;5102227;27;45383;-95
2022/06/12 08:26:25;;;;;;;;;1.33;1.33;;;;;23.55;40.42;102148.50;5078221;28;45526;-93
2022/06/12 08:28:50;;;;;;;;;2.00;1.00;;;;;23.69;40.05;102143.84;5081832;28;45330;-93
2022/06/12 08:31:21;;;;;;;;;1.00;1.00;;;;;24.31;39.18;102135.34;5084816;28;45303;-94
2022/06/12 08:33:49;;;;;;;;;4.75;1.75;;;;;24.46;38.18;102099.66;5102649;27;45394;-95
2022/06/12 08:36:18;;;;;;;;;2.00;2.00;;;;;24.72;38.36;102124.84;5105495;27;45232;-94
2022/06/12 08:38:44;;;;;;;;;2.33;1.67;;;;;25.00;37.68;102124.28;5102830;27;46587;-94
2022/06/12 08:41:17;;;;;;;;;0.00;0.00;;;;;25.34;36.71;102126.97;5102419;27;45510;-93
2022/06/12 08:44:11;;;;;;;;;2.00;1.00;;;;;25.51;36.45;102120.06;5101805;27;45500;-93
2022/06/12 08:46:45;;;;;;;;;2.00;0.25;;;;;25.75;36.12;102121.69;5103417;27;45379;-94
2022/06/12 08:49:39;;;;;;;;;1.25;1.25;;;;;25.92;36.21;102110.19;5101832;27;45348;-94
2022/06/12 08:52:15;;;;;;;;;1.75;1.00;;;;;25.88;35.78;102093.19;5098065;27;45502;-93
2022/06/12 08:54:48;;;;;;;;;1.00;1.00;;;;;25.98;35.83;102098.72;5099717;27;45545;-93
2022/06/12 08:57:24;;;;;;;;;2.00;2.00;;;;;26.27;35.57;102117.13;5100700;27;45475;-93
2022/06/12 08:59:59;;;;;;;;;1.50;1.00;;;;;26.44;34.86;102091.03;5100770;27;45370;-93
2022/06/12 09:02:30;;;;;;;;;0.50;0.50;;;;;26.85;34.62;102092.75;5100364;27;45494;-94
2022/06/12 09:04:58;;;;;;;;;1.00;1.00;;;;;27.41;33.24;102107.69;5101064;27;45449;-92
2022/06/12 09:07:41;;;;;;;;;1.00;1.00;;;;;27.99;33.80;102106.81;5100836;27;45454;-93
2022/06/12 09:10:12;;;;;;;;;0.75;0.75;;;;;28.52;33.03;102092.50;5098101;27;46454;-93
2022/06/12 09:12:44;;;;;;;;;1.50;0.50;;;;;29.02;32.02;102085.69;5097589;27;45452;-94
2022/06/12 09:15:45;;;;;;;;;0.25;0.25;;;;;29.51;31.42;102077.09;5097339;27;45411;-93
2022/06/12 09:18:35;;;;;;;;;1.50;1.00;;;;;30.04;29.68;102082.47;5019458;28;45415;-92
2022/06/12 09:21:07;;;;;;;;;1.00;1.00;;;;;30.54;29.36;102071.75;5016139;28;46379;-92
2022/06/12 09:23:55;;;;;;;;;0.50;0.50;;;;;31.09;28.49;102096.00;5014442;28;45898;-96
2022/06/12 09:26:32;;;;;;;;;0.50;0.25;;;;;31.42;27.57;102082.28;5009412;28;45443;-95
2022/06/12 09:29:25;;;;;;;;;1.25;0.00;;;;;31.86;27.81;102098.47;5012489;28;45515;-94
2022/06/12 09:31:58;;;;;;;;;1.00;1.00;;;;;32.28;27.61;102091.84;5013899;28;47087;-93
2022/06/12 09:34:35;;;;;;;;;0.50;0.50;;;;;32.42;27.31;102074.53;5013471;28;45357;-90
2022/06/12 09:40:19;;;;;;;;;1.00;0.00;;;;;33.04;26.75;102090.34;5022537;28;45557;-93
2022/06/12 09:43:10;;;;;;;;;0.75;0.75;;;;;33.37;25.82;102095.63;5015149;28;45589;-93
2022/06/12 09:48:43;;;;;;;;;1.50;1.50;;;;;33.72;25.22;102085.00;5346930;22;45413;-92
2022/06/12 09:51:17;;;;;;;;;1.00;1.00;;;;;33.92;24.45;102086.13;4954127;28;45454;-94
2022/06/12 09:54:20;;;;;;;;;0.75;0.75;;;;;34.36;24.12;102099.16;4971049;28;46376;-95
2022/06/12 09:56:59;;;;;;;;;0.00;0.00;;;;;34.70;23.22;102088.53;4984667;28;45550;-96
2022/06/12 09:59:44;;;;;;;;;0.25;0.25;;;;;34.99;23.65;102082.94;4966535;28;45621;-93
2022/06/12 10:02:27;;;;;;;;;2.00;0.00;;;;;34.95;22.15;102048.34;4976212;28;45519;-92
2022/06/12 10:05:11;;;;;;;;;0.00;0.00;;;;;35.24;22.83;102094.53;4985325;28;46237;-93
2022/06/12 10:07:50;;;;;;;;;0.50;0.50;;;;;35.20;21.84;102092.34;4974830;28;45466;-90
2022/06/12 10:10:24;;;;;;;;;1.67;1.67;;;;;35.31;22.35;102097.38;4973722;28;45462;-90
2022/06/12 10:12:57;;;;;;;;;1.00;1.00;;;;;35.54;22.85;102091.59;4968190;28;45612;-89
2022/06/12 10:15:30;;;;;;;;;0.67;0.67;;;;;35.12;22.51;101957.50;5139868;22;47362;-96
2022/06/12 10:18:24;;;;;;;;;1.00;1.00;;;;;36.21;23.08;102084.66;5075550;28;45548;-93
2022/06/12 10:20:55;;;;;;;;;2.33;1.33;;;;;36.07;23.19;102092.03;5075715;28;45543;-94
2022/06/12 10:23:21;;;;;;;;;2.67;2.67;;;;;35.82;23.47;102090.78;5077793;28;45540;-94
2022/06/12 10:25:51;;;;;;;;;4.00;3.00;;;;;35.69;22.60;102089.63;5074917;28;46195;-92
2022/06/12 10:28:16;;;;;;;;;2.00;2.00;;;;;35.59;23.00;102094.66;5079085;28;45377;-90
2022/06/12 10:30:45;;;;;;;;;1.00;1.00;;;;;35.53;23.20;102091.81;5063093;28;45356;-88
2022/06/12 10:33:32;;;;;;;;;2.00;1.67;;;;;35.27;23.34;102060.00;5079258;28;45377;-91
2022/06/12 10:36:01;;;;;;;;;3.33;2.00;;;;;35.38;22.92;102083.56;5070604;28;46842;-87
2022/06/12 10:38:33;;;;;;;;;2.00;2.00;;;;;35.33;23.82;102078.59;5074374;28;45685;-88
2022/06/12 10:41:05;;;;;;;;;1.67;1.67;;;;;35.25;23.78;102051.03;5073456;28;45567;-89
2022/06/12 10:43:44;;;;;;;;;1.67;1.67;;;;;35.51;23.29;102061.50;5074406;28;45494;-87
2022/06/12 10:46:12;;;;;;;;;1.33;1.33;;;;;35.71;22.32;102073.66;5070198;28;46422;-86
2022/06/12 10:48:37;;;;;;;;;1.33;1.33;;;;;35.82;22.89;102061.09;5077143;27;45434;-85
2022/06/12 10:51:27;;;;;;;;;1.00;1.00;;;;;35.90;22.84;102055.41;5079184;27;45396;-86
2022/06/12 10:54:05;;;;;;;;;0.33;0.33;;;;;35.91;22.22;102034.91;5079999;27;46064;-84
2022/06/12 10:56:39;;;;;;;;;1.00;0.00;;;;;36.11;21.66;102045.34;5079726;27;47421;-84
2022/06/12 10:59:13;;;;;;;;;3.00;1.00;;;;;36.14;21.96;102059.66;5068064;27;45641;-83
2022/06/12 11:01:41;;;;;;;;;3.00;3.00;;;;;36.14;22.41;102059.66;5074421;27;45527;-84
2022/06/12 11:04:53;;;;;;;;;1.33;1.33;;;;;36.07;22.04;102050.38;5076660;27;45555;-91
2022/06/12 11:07:40;;;;;;;;;1.67;1.67;;;;;36.00;22.24;102048.66;5082704;27;47056;-92
2022/06/12 11:10:21;;;;;;;;;3.00;3.00;;;;;35.93;22.41;102043.91;5069379;28;45646;-92
2022/06/12 11:13:34;;;;;;;;;2.00;2.00;;;;;35.87;22.18;102041.06;5072142;27;45634;-96
2022/06/12 11:16:15;;;;;;;;;2.00;2.00;;;;;35.77;22.19;102032.28;4999305;28;45487;-96
2022/06/12 11:18:58;;;;;;;;;2.00;2.00;;;;;35.68;20.97;102028.78;4991263;28;46417;-95
2022/06/12 11:21:35;;;;;;;;;1.00;1.00;;;;;35.54;22.35;102027.78;5003517;28;45428;-95
2022/06/12 11:24:06;;;;;;;;;2.00;2.00;;;;;35.43;21.64;102028.38;5010421;28;45872;-96
2022/06/12 11:26:56;;;;;;;;;4.00;3.00;;;;;35.34;22.53;102016.56;5003106;28;45880;-96
2022/06/12 11:29:28;;;;;;;;;1.33;1.33;;;;;35.15;22.53;102000.63;5001042;28;46138;-93
2022/06/12 11:32:12;;;;;;;;;2.67;0.67;;;;;35.21;22.35;102008.97;5009910;28;45531;-93
2022/06/12 11:35:23;;;;;;;;;0.33;0.33;;;;;35.09;22.27;102016.94;4995138;28;45393;-93
2022/06/12 11:38:09;;;;;;;;;3.00;3.00;;;;;34.95;22.30;102006.78;4998531;28;45475;-95
2022/06/12 11:41:04;;;;;;;;;2.00;2.00;;;;;34.67;22.06;101971.53;4995095;28;45788;-95
2022/06/12 11:43:38;;;;;;;;;1.33;1.33;;;;;34.71;22.06;101988.66;4982369;28;45468;-91
2022/06/12 11:46:21;;;;;;;;;1.00;1.00;;;;;34.60;22.83;101991.91;4992665;28;45524;-94
2022/06/12 11:49:00;;;;;;;;;1.33;1.33;;;;;34.31;22.71;101959.63;5001831;28;45381;-95
2022/06/12 11:51:55;;;;;;;;;1.67;1.67;;;;;34.21;22.62;101974.63;5017474;28;46171;-92
2022/06/12 11:57:04;;;;;;;;;2.00;2.00;;;;;33.68;22.15;101934.31;5579786;22;46551;-93
2022/06/12 11:59:37;;;;;;;;;1.67;1.67;;;;;33.79;22.81;101973.41;5075473;27;45508;-92
2022/06/12 12:02:19;;;;;;;;;5.00;5.00;;;;;33.14;23.09;101905.81;5074789;27;46214;-92
2022/06/12 12:05:02;;;;;;;;;3.67;3.67;;;;;33.47;23.38;101982.88;5084323;27;45554;-94
2022/06/12 12:08:09;;;;;;;;;2.33;1.67;;;;;33.22;22.97;101966.53;5080485;27;45526;-94
2022/06/12 12:10:50;;;;;;;;;2.00;2.00;;;;;33.19;23.36;101974.34;5081103;27;45391;-93
2022/06/12 12:13:21;;;;;;;;;3.33;2.33;;;;;32.67;22.32;101912.41;5086412;27;45628;-96